sensor_id;sensor_type;location;lat;lon;timestamp;temperature;humidity
1988;DHT22;12775;46.994;15.498;2022-11-30T00:02:16;7.10;96.30
1988;DHT22;12775;46.994;15.498;2022-11-30T00:04:43;7.10;96.40
1988;DHT22;12775;46.994;15.498;2022-11-30T00:07:11;7.10;96.50
1988;DHT22;12775;46.994;15.498;2022-11-30T00:09:38;7.10;96.50
1988;DHT22;12775;46.994;15.498;2022-11-30T00:12:06;7.10;96.50
1988;DHT22;12775;46.994;15.498;2022-11-30T00:14:33;7.10;96.50
1988;DHT22;12775;46.994;15.498;2022-11-30T00:17:01;7.20;96.30
1988;DHT22;12775;46.994;15.498;2022-11-30T00:19:29;7.20;96.20
1988;DHT22;12775;46.994;15.498;2022-11-30T00:21:56;7.20;96.20
1988;DHT22;12775;46.994;15.498;2022-11-30T00:24:24;7.20;96.10
1988;DHT22;12775;46.994;15.498;2022-11-30T00:26:52;7.20;95.80
1988;DHT22;12775;46.994;15.498;2022-11-30T00:29:20;7.10;95.80
1988;DHT22;12775;46.994;15.498;2022-11-30T00:31:47;7.10;96.00
1988;DHT22;12775;46.994;15.498;2022-11-30T00:34:14;7.10;95.90
1988;DHT22;12775;46.994;15.498;2022-11-30T00:36:42;7.10;96.10
1988;DHT22;12775;46.994;15.498;2022-11-30T00:39:09;7.00;96.10
1988;DHT22;12775;46.994;15.498;2022-11-30T00:41:36;7.10;96.20
1988;DHT22;12775;46.994;15.498;2022-11-30T00:44:04;7.00;96.40
1988;DHT22;12775;46.994;15.498;2022-11-30T00:46:31;7.10;96.40
1988;DHT22;12775;46.994;15.498;2022-11-30T00:48:59;7.10;96.80
1988;DHT22;12775;46.994;15.498;2022-11-30T00:51:26;7.10;96.50
1988;DHT22;12775;46.994;15.498;2022-11-30T00:53:53;7.10;96.70
1988;DHT22;12775;46.994;15.498;2022-11-30T00:56:21;7.10;96.30
1988;DHT22;12775;46.994;15.498;2022-11-30T00:58:48;7.10;96.20
1988;DHT22;12775;46.994;15.498;2022-11-30T01:01:16;7.10;96.40
1988;DHT22;12775;46.994;15.498;2022-11-30T01:03:43;7.10;96.10
1988;DHT22;12775;46.994;15.498;2022-11-30T01:06:10;7.10;96.20
1988;DHT22;12775;46.994;15.498;2022-11-30T01:08:38;7.20;96.10
1988;DHT22;12775;46.994;15.498;2022-11-30T01:11:23;7.20;96.00
1988;DHT22;12775;46.994;15.498;2022-11-30T01:13:49;7.10;96.00
1988;DHT22;12775;46.994;15.498;2022-11-30T01:16:18;7.10;96.10
1988;DHT22;12775;46.994;15.498;2022-11-30T01:18:43;7.10;96.10
1988;DHT22;12775;46.994;15.498;2022-11-30T01:21:11;7.00;95.70
1988;DHT22;12775;46.994;15.498;2022-11-30T01:23:37;7.00;95.70
1988;DHT22;12775;46.994;15.498;2022-11-30T01:26:04;7.00;95.80
1988;DHT22;12775;46.994;15.498;2022-11-30T01:28:30;6.80;96.00
1988;DHT22;12775;46.994;15.498;2022-11-30T01:30:58;6.80;96.20
1988;DHT22;12775;46.994;15.498;2022-11-30T01:33:25;6.70;96.20
1988;DHT22;12775;46.994;15.498;2022-11-30T01:36:04;6.60;96.40
1988;DHT22;12775;46.994;15.498;2022-11-30T01:38:32;6.60;96.70
1988;DHT22;12775;46.994;15.498;2022-11-30T01:40:58;6.50;96.70
1988;DHT22;12775;46.994;15.498;2022-11-30T01:43:35;6.50;96.90
1988;DHT22;12775;46.994;15.498;2022-11-30T01:45:52;6.50;96.90
1988;DHT22;12775;46.994;15.498;2022-11-30T01:48:19;6.50;97.30
1988;DHT22;12775;46.994;15.498;2022-11-30T01:50:46;6.60;97.50
1988;DHT22;12775;46.994;15.498;2022-11-30T01:53:14;6.60;97.40
1988;DHT22;12775;46.994;15.498;2022-11-30T01:55:41;6.60;97.40
1988;DHT22;12775;46.994;15.498;2022-11-30T01:58:09;6.70;97.50
1988;DHT22;12775;46.994;15.498;2022-11-30T02:00:36;6.70;97.40
1988;DHT22;12775;46.994;15.498;2022-11-30T02:03:10;6.80;97.30
1988;DHT22;12775;46.994;15.498;2022-11-30T02:05:36;6.80;97.30
1988;DHT22;12775;46.994;15.498;2022-11-30T02:08:03;6.80;97.90
1988;DHT22;12775;46.994;15.498;2022-11-30T02:10:32;6.80;97.90
1988;DHT22;12775;46.994;15.498;2022-11-30T02:13:23;6.90;98.40
1988;DHT22;12775;46.994;15.498;2022-11-30T02:21:29;6.70;98.20
1988;DHT22;12775;46.994;15.498;2022-11-30T02:24:04;6.70;97.90
1988;DHT22;12775;46.994;15.498;2022-11-30T02:26:50;6.60;97.80
1988;DHT22;12775;46.994;15.498;2022-11-30T02:29:20;6.60;97.80
1988;DHT22;12775;46.994;15.498;2022-11-30T02:31:53;6.60;97.80
1988;DHT22;12775;46.994;15.498;2022-11-30T02:34:16;6.50;97.80
1988;DHT22;12775;46.994;15.498;2022-11-30T02:36:44;6.50;98.30
1988;DHT22;12775;46.994;15.498;2022-11-30T02:39:11;6.50;98.30
1988;DHT22;12775;46.994;15.498;2022-11-30T02:41:39;6.50;98.10
1988;DHT22;12775;46.994;15.498;2022-11-30T02:44:08;6.50;97.90
1988;DHT22;12775;46.994;15.498;2022-11-30T02:46:39;6.50;98.10
1988;DHT22;12775;46.994;15.498;2022-11-30T02:49:18;6.60;98.20
1988;DHT22;12775;46.994;15.498;2022-11-30T02:51:44;6.60;98.30
1988;DHT22;12775;46.994;15.498;2022-11-30T02:54:12;6.60;98.20
1988;DHT22;12775;46.994;15.498;2022-11-30T02:56:39;6.70;98.00
1988;DHT22;12775;46.994;15.498;2022-11-30T02:59:06;6.80;98.10
1988;DHT22;12775;46.994;15.498;2022-11-30T03:01:34;6.80;98.20
1988;DHT22;12775;46.994;15.498;2022-11-30T03:04:01;6.80;97.60
1988;DHT22;12775;46.994;15.498;2022-11-30T03:06:29;6.80;97.50
1988;DHT22;12775;46.994;15.498;2022-11-30T03:08:56;6.80;97.50
1988;DHT22;12775;46.994;15.498;2022-11-30T03:11:23;6.80;97.60
1988;DHT22;12775;46.994;15.498;2022-11-30T03:13:51;6.80;97.90
1988;DHT22;12775;46.994;15.498;2022-11-30T03:16:18;6.80;98.00
1988;DHT22;12775;46.994;15.498;2022-11-30T03:18:45;6.70;98.00
1988;DHT22;12775;46.994;15.498;2022-11-30T03:21:13;6.70;98.10
1988;DHT22;12775;46.994;15.498;2022-11-30T03:23:40;6.80;98.10
1988;DHT22;12775;46.994;15.498;2022-11-30T03:26:08;6.70;98.10
1988;DHT22;12775;46.994;15.498;2022-11-30T03:28:35;6.80;98.00
1988;DHT22;12775;46.994;15.498;2022-11-30T03:31:03;6.80;98.10
1988;DHT22;12775;46.994;15.498;2022-11-30T03:33:30;6.80;98.10
1988;DHT22;12775;46.994;15.498;2022-11-30T03:36:01;6.70;98.20
1988;DHT22;12775;46.994;15.498;2022-11-30T03:38:28;6.70;98.30
1988;DHT22;12775;46.994;15.498;2022-11-30T03:41:00;6.50;98.60
1988;DHT22;12775;46.994;15.498;2022-11-30T03:43:28;6.50;99.10
1988;DHT22;12775;46.994;15.498;2022-11-30T03:45:55;6.50;98.70
1988;DHT22;12775;46.994;15.498;2022-11-30T03:48:23;6.50;98.70
1988;DHT22;12775;46.994;15.498;2022-11-30T03:50:51;6.50;98.80
1988;DHT22;12775;46.994;15.498;2022-11-30T03:53:19;6.50;98.80
1988;DHT22;12775;46.994;15.498;2022-11-30T03:55:46;6.50;98.60
1988;DHT22;12775;46.994;15.498;2022-11-30T03:58:13;6.50;98.50
1988;DHT22;12775;46.994;15.498;2022-11-30T04:00:40;6.50;98.80
1988;DHT22;12775;46.994;15.498;2022-11-30T04:03:07;6.60;98.70
1988;DHT22;12775;46.994;15.498;2022-11-30T04:05:35;6.60;98.90
1988;DHT22;12775;46.994;15.498;2022-11-30T04:08:02;6.60;98.50
1988;DHT22;12775;46.994;15.498;2022-11-30T04:10:30;6.70;98.30
1988;DHT22;12775;46.994;15.498;2022-11-30T04:12:57;6.70;98.20
1988;DHT22;12775;46.994;15.498;2022-11-30T04:15:24;6.70;98.00
1988;DHT22;12775;46.994;15.498;2022-11-30T04:17:52;6.70;98.20
1988;DHT22;12775;46.994;15.498;2022-11-30T04:20:19;6.70;97.90
1988;DHT22;12775;46.994;15.498;2022-11-30T04:22:46;6.70;97.70
1988;DHT22;12775;46.994;15.498;2022-11-30T04:25:14;6.80;97.60
1988;DHT22;12775;46.994;15.498;2022-11-30T04:27:43;6.70;97.80
1988;DHT22;12775;46.994;15.498;2022-11-30T04:30:09;6.70;98.10
1988;DHT22;12775;46.994;15.498;2022-11-30T04:32:37;6.80;97.60
1988;DHT22;12775;46.994;15.498;2022-11-30T04:35:05;6.80;97.50
1988;DHT22;12775;46.994;15.498;2022-11-30T04:37:32;6.80;97.40
1988;DHT22;12775;46.994;15.498;2022-11-30T04:39:59;6.80;97.10
1988;DHT22;12775;46.994;15.498;2022-11-30T04:42:27;6.80;97.20
1988;DHT22;12775;46.994;15.498;2022-11-30T04:44:54;6.80;97.30
1988;DHT22;12775;46.994;15.498;2022-11-30T04:47:21;6.80;97.20
1988;DHT22;12775;46.994;15.498;2022-11-30T04:49:47;6.80;97.40
1988;DHT22;12775;46.994;15.498;2022-11-30T04:52:15;6.60;97.50
1988;DHT22;12775;46.994;15.498;2022-11-30T04:54:42;6.40;97.70
1988;DHT22;12775;46.994;15.498;2022-11-30T04:57:09;6.40;98.10
1988;DHT22;12775;46.994;15.498;2022-11-30T04:59:37;6.20;98.20
1988;DHT22;12775;46.994;15.498;2022-11-30T05:02:04;6.10;98.70
1988;DHT22;12775;46.994;15.498;2022-11-30T05:04:32;6.10;99.00
1988;DHT22;12775;46.994;15.498;2022-11-30T05:06:59;6.00;99.40
1988;DHT22;12775;46.994;15.498;2022-11-30T05:09:26;5.90;99.60
1988;DHT22;12775;46.994;15.498;2022-11-30T05:11:54;5.70;99.90
1988;DHT22;12775;46.994;15.498;2022-11-30T05:14:21;5.70;99.90
1988;DHT22;12775;46.994;15.498;2022-11-30T05:16:48;5.70;99.90
1988;DHT22;12775;46.994;15.498;2022-11-30T05:19:16;5.60;99.90
1988;DHT22;12775;46.994;15.498;2022-11-30T05:21:43;5.60;99.90
1988;DHT22;12775;46.994;15.498;2022-11-30T05:24:10;5.60;99.90
1988;DHT22;12775;46.994;15.498;2022-11-30T05:26:38;5.60;99.90
1988;DHT22;12775;46.994;15.498;2022-11-30T05:29:05;5.70;99.90
1988;DHT22;12775;46.994;15.498;2022-11-30T05:31:33;5.70;99.90
1988;DHT22;12775;46.994;15.498;2022-11-30T05:34:00;5.80;99.90
1988;DHT22;12775;46.994;15.498;2022-11-30T05:36:27;5.80;99.90
1988;DHT22;12775;46.994;15.498;2022-11-30T05:38:55;5.90;99.90
1988;DHT22;12775;46.994;15.498;2022-11-30T05:41:22;5.90;99.90
1988;DHT22;12775;46.994;15.498;2022-11-30T05:43:50;5.90;99.90
1988;DHT22;12775;46.994;15.498;2022-11-30T05:46:17;6.00;99.90
1988;DHT22;12775;46.994;15.498;2022-11-30T05:48:45;6.00;99.90
1988;DHT22;12775;46.994;15.498;2022-11-30T05:51:14;6.10;99.90
1988;DHT22;12775;46.994;15.498;2022-11-30T05:53:41;6.20;99.90
1988;DHT22;12775;46.994;15.498;2022-11-30T05:56:10;6.20;99.90
1988;DHT22;12775;46.994;15.498;2022-11-30T05:58:35;6.20;99.90
1988;DHT22;12775;46.994;15.498;2022-11-30T06:01:01;6.30;99.90
1988;DHT22;12775;46.994;15.498;2022-11-30T06:03:29;6.30;99.90
1988;DHT22;12775;46.994;15.498;2022-11-30T06:05:56;6.40;99.90
1988;DHT22;12775;46.994;15.498;2022-11-30T06:08:23;6.40;99.70
1988;DHT22;12775;46.994;15.498;2022-11-30T06:10:51;6.40;99.70
1988;DHT22;12775;46.994;15.498;2022-11-30T06:13:17;6.40;99.70
1988;DHT22;12775;46.994;15.498;2022-11-30T06:15:45;6.40;99.70
1988;DHT22;12775;46.994;15.498;2022-11-30T06:18:12;6.40;99.90
1988;DHT22;12775;46.994;15.498;2022-11-30T06:20:39;6.50;99.70
1988;DHT22;12775;46.994;15.498;2022-11-30T06:23:07;6.40;99.60
1988;DHT22;12775;46.994;15.498;2022-11-30T06:25:34;6.50;99.60
1988;DHT22;12775;46.994;15.498;2022-11-30T06:28:02;6.50;99.80
1988;DHT22;12775;46.994;15.498;2022-11-30T06:30:29;6.50;99.80
1988;DHT22;12775;46.994;15.498;2022-11-30T06:32:57;6.50;99.60
1988;DHT22;12775;46.994;15.498;2022-11-30T06:35:25;6.50;99.70
1988;DHT22;12775;46.994;15.498;2022-11-30T06:37:52;6.40;99.60
1988;DHT22;12775;46.994;15.498;2022-11-30T06:40:19;6.30;99.80
1988;DHT22;12775;46.994;15.498;2022-11-30T06:42:47;6.30;99.60
1988;DHT22;12775;46.994;15.498;2022-11-30T06:45:14;6.40;99.70
1988;DHT22;12775;46.994;15.498;2022-11-30T06:47:42;6.30;99.80
1988;DHT22;12775;46.994;15.498;2022-11-30T06:50:09;6.30;99.90
1988;DHT22;12775;46.994;15.498;2022-11-30T06:52:36;6.30;99.90
1988;DHT22;12775;46.994;15.498;2022-11-30T06:55:05;6.30;99.90
1988;DHT22;12775;46.994;15.498;2022-11-30T06:57:33;6.20;99.80
1988;DHT22;12775;46.994;15.498;2022-11-30T07:00:00;6.20;99.90
1988;DHT22;12775;46.994;15.498;2022-11-30T07:02:27;6.30;99.90
1988;DHT22;12775;46.994;15.498;2022-11-30T07:04:55;6.20;99.90
1988;DHT22;12775;46.994;15.498;2022-11-30T07:07:22;6.30;99.90
1988;DHT22;12775;46.994;15.498;2022-11-30T07:09:49;6.20;99.90
1988;DHT22;12775;46.994;15.498;2022-11-30T07:12:17;6.30;99.90
1988;DHT22;12775;46.994;15.498;2022-11-30T07:14:45;6.30;99.90
1988;DHT22;12775;46.994;15.498;2022-11-30T07:17:12;6.30;99.90
1988;DHT22;12775;46.994;15.498;2022-11-30T07:19:40;6.30;99.90
1988;DHT22;12775;46.994;15.498;2022-11-30T07:22:07;6.30;99.90
1988;DHT22;12775;46.994;15.498;2022-11-30T07:24:34;6.30;99.90
1988;DHT22;12775;46.994;15.498;2022-11-30T07:27:08;6.30;99.90
1988;DHT22;12775;46.994;15.498;2022-11-30T07:29:35;6.20;99.90
1988;DHT22;12775;46.994;15.498;2022-11-30T07:32:02;6.20;99.90
1988;DHT22;12775;46.994;15.498;2022-11-30T07:34:30;6.10;99.90
1988;DHT22;12775;46.994;15.498;2022-11-30T07:36:57;6.10;99.90
1988;DHT22;12775;46.994;15.498;2022-11-30T07:39:25;6.10;99.90
1988;DHT22;12775;46.994;15.498;2022-11-30T07:41:53;6.20;99.90
1988;DHT22;12775;46.994;15.498;2022-11-30T07:44:20;6.10;99.90
1988;DHT22;12775;46.994;15.498;2022-11-30T07:46:46;6.10;99.90
1988;DHT22;12775;46.994;15.498;2022-11-30T07:49:13;6.10;99.90
1988;DHT22;12775;46.994;15.498;2022-11-30T07:51:39;6.10;99.90
1988;DHT22;12775;46.994;15.498;2022-11-30T07:54:07;6.20;99.90
1988;DHT22;12775;46.994;15.498;2022-11-30T07:56:34;6.20;99.90
1988;DHT22;12775;46.994;15.498;2022-11-30T07:59:02;6.20;99.90
1988;DHT22;12775;46.994;15.498;2022-11-30T08:01:30;6.20;99.90
1988;DHT22;12775;46.994;15.498;2022-11-30T08:03:57;6.10;99.90
1988;DHT22;12775;46.994;15.498;2022-11-30T08:06:26;6.10;99.90
1988;DHT22;12775;46.994;15.498;2022-11-30T08:08:53;6.00;99.90
1988;DHT22;12775;46.994;15.498;2022-11-30T08:11:20;6.00;99.90
1988;DHT22;12775;46.994;15.498;2022-11-30T08:13:47;6.00;99.90
1988;DHT22;12775;46.994;15.498;2022-11-30T08:16:17;6.00;99.90
1988;DHT22;12775;46.994;15.498;2022-11-30T08:18:42;6.00;99.90
1988;DHT22;12775;46.994;15.498;2022-11-30T08:21:10;6.00;99.90
1988;DHT22;12775;46.994;15.498;2022-11-30T08:23:37;6.00;99.90
1988;DHT22;12775;46.994;15.498;2022-11-30T08:26:05;6.00;99.90
1988;DHT22;12775;46.994;15.498;2022-11-30T08:28:31;5.90;99.90
1988;DHT22;12775;46.994;15.498;2022-11-30T08:30:59;6.00;99.90
1988;DHT22;12775;46.994;15.498;2022-11-30T08:33:26;5.90;99.90
1988;DHT22;12775;46.994;15.498;2022-11-30T08:35:53;6.00;99.90
1988;DHT22;12775;46.994;15.498;2022-11-30T08:38:20;5.90;99.90
1988;DHT22;12775;46.994;15.498;2022-11-30T08:40:47;5.90;99.90
1988;DHT22;12775;46.994;15.498;2022-11-30T08:43:14;5.90;99.90
1988;DHT22;12775;46.994;15.498;2022-11-30T08:45:42;6.00;99.90
1988;DHT22;12775;46.994;15.498;2022-11-30T08:48:08;6.00;99.90
1988;DHT22;12775;46.994;15.498;2022-11-30T08:50:36;6.00;99.90
1988;DHT22;12775;46.994;15.498;2022-11-30T08:53:03;6.00;99.90
1988;DHT22;12775;46.994;15.498;2022-11-30T08:55:30;6.00;99.90
1988;DHT22;12775;46.994;15.498;2022-11-30T08:57:58;6.10;99.90
1988;DHT22;12775;46.994;15.498;2022-11-30T09:00:25;6.10;99.90
1988;DHT22;12775;46.994;15.498;2022-11-30T09:02:53;6.20;99.90
1988;DHT22;12775;46.994;15.498;2022-11-30T09:05:20;6.20;99.90
1988;DHT22;12775;46.994;15.498;2022-11-30T09:07:47;6.10;99.90
1988;DHT22;12775;46.994;15.498;2022-11-30T09:10:15;6.10;99.90
1988;DHT22;12775;46.994;15.498;2022-11-30T09:12:42;6.00;99.90
1988;DHT22;12775;46.994;15.498;2022-11-30T09:15:09;6.10;99.90
1988;DHT22;12775;46.994;15.498;2022-11-30T09:17:37;6.10;99.90
1988;DHT22;12775;46.994;15.498;2022-11-30T09:20:05;6.10;99.90
1988;DHT22;12775;46.994;15.498;2022-11-30T09:22:33;6.10;99.90
1988;DHT22;12775;46.994;15.498;2022-11-30T09:25:00;6.20;99.90
1988;DHT22;12775;46.994;15.498;2022-11-30T09:27:30;6.10;99.90
1988;DHT22;12775;46.994;15.498;2022-11-30T09:29:56;6.20;99.90
1988;DHT22;12775;46.994;15.498;2022-11-30T09:32:23;6.20;99.90
1988;DHT22;12775;46.994;15.498;2022-11-30T09:34:50;6.30;99.90
1988;DHT22;12775;46.994;15.498;2022-11-30T09:37:18;6.30;99.90
1988;DHT22;12775;46.994;15.498;2022-11-30T09:39:45;6.40;99.90
1988;DHT22;12775;46.994;15.498;2022-11-30T09:42:20;6.30;99.90
1988;DHT22;12775;46.994;15.498;2022-11-30T09:44:50;6.30;99.90
1988;DHT22;12775;46.994;15.498;2022-11-30T09:47:32;6.40;99.90
1988;DHT22;12775;46.994;15.498;2022-11-30T09:50:03;6.40;99.90
1988;DHT22;12775;46.994;15.498;2022-11-30T09:52:32;6.50;99.90
1988;DHT22;12775;46.994;15.498;2022-11-30T09:54:59;6.50;99.90
1988;DHT22;12775;46.994;15.498;2022-11-30T09:57:28;6.50;99.90
1988;DHT22;12775;46.994;15.498;2022-11-30T09:59:54;6.50;99.90
1988;DHT22;12775;46.994;15.498;2022-11-30T10:02:22;6.50;99.90
1988;DHT22;12775;46.994;15.498;2022-11-30T10:04:49;6.50;99.90
1988;DHT22;12775;46.994;15.498;2022-11-30T10:07:44;6.50;99.90
1988;DHT22;12775;46.994;15.498;2022-11-30T10:12:45;6.50;99.90
1988;DHT22;12775;46.994;15.498;2022-11-30T10:15:53;6.50;99.90
1988;DHT22;12775;46.994;15.498;2022-11-30T10:18:18;6.60;99.90
1988;DHT22;12775;46.994;15.498;2022-11-30T10:20:47;6.60;99.90
1988;DHT22;12775;46.994;15.498;2022-11-30T10:23:18;6.60;99.90
1988;DHT22;12775;46.994;15.498;2022-11-30T10:25:50;6.60;99.90
1988;DHT22;12775;46.994;15.498;2022-11-30T10:28:21;6.70;99.90
1988;DHT22;12775;46.994;15.498;2022-11-30T10:30:45;6.70;99.90
1988;DHT22;12775;46.994;15.498;2022-11-30T10:33:17;6.70;99.90
1988;DHT22;12775;46.994;15.498;2022-11-30T10:35:52;6.80;99.90
1988;DHT22;12775;46.994;15.498;2022-11-30T10:38:29;6.80;99.90
1988;DHT22;12775;46.994;15.498;2022-11-30T10:41:02;6.80;99.90
1988;DHT22;12775;46.994;15.498;2022-11-30T10:43:31;6.80;99.90
1988;DHT22;12775;46.994;15.498;2022-11-30T10:45:57;6.90;99.90
1988;DHT22;12775;46.994;15.498;2022-11-30T10:48:31;7.00;99.90
1988;DHT22;12775;46.994;15.498;2022-11-30T10:50:55;7.00;99.90
1988;DHT22;12775;46.994;15.498;2022-11-30T10:53:22;7.00;99.90
1988;DHT22;12775;46.994;15.498;2022-11-30T10:56:06;7.00;99.90
1988;DHT22;12775;46.994;15.498;2022-11-30T10:58:37;7.00;99.90
1988;DHT22;12775;46.994;15.498;2022-11-30T11:01:05;7.10;99.90
1988;DHT22;12775;46.994;15.498;2022-11-30T11:03:30;7.00;99.90
1988;DHT22;12775;46.994;15.498;2022-11-30T11:06:13;7.00;99.90
1988;DHT22;12775;46.994;15.498;2022-11-30T11:08:41;7.10;99.90
1988;DHT22;12775;46.994;15.498;2022-11-30T11:11:31;7.10;99.90
1988;DHT22;12775;46.994;15.498;2022-11-30T11:14:18;7.10;99.90
1988;DHT22;12775;46.994;15.498;2022-11-30T11:19:25;7.10;99.90
1988;DHT22;12775;46.994;15.498;2022-11-30T11:21:51;7.10;99.90
1988;DHT22;12775;46.994;15.498;2022-11-30T11:24:18;7.10;99.90
1988;DHT22;12775;46.994;15.498;2022-11-30T11:26:49;7.20;99.90
1988;DHT22;12775;46.994;15.498;2022-11-30T11:29:24;7.20;99.90
1988;DHT22;12775;46.994;15.498;2022-11-30T11:31:50;7.20;99.90
1988;DHT22;12775;46.994;15.498;2022-11-30T11:34:23;7.20;99.90
1988;DHT22;12775;46.994;15.498;2022-11-30T11:36:52;7.20;99.90
1988;DHT22;12775;46.994;15.498;2022-11-30T11:39:25;7.20;99.90
1988;DHT22;12775;46.994;15.498;2022-11-30T11:41:53;7.20;99.90
1988;DHT22;12775;46.994;15.498;2022-11-30T11:44:21;7.20;99.90
1988;DHT22;12775;46.994;15.498;2022-11-30T11:46:55;7.10;99.90
1988;DHT22;12775;46.994;15.498;2022-11-30T11:49:24;7.00;99.90
1988;DHT22;12775;46.994;15.498;2022-11-30T11:52:14;7.00;99.90
1988;DHT22;12775;46.994;15.498;2022-11-30T11:54:50;7.00;99.90
1988;DHT22;12775;46.994;15.498;2022-11-30T11:57:16;7.10;99.90
1988;DHT22;12775;46.994;15.498;2022-11-30T12:00:00;7.10;99.90
1988;DHT22;12775;46.994;15.498;2022-11-30T12:02:31;7.10;99.90
1988;DHT22;12775;46.994;15.498;2022-11-30T12:04:55;7.10;99.90
1988;DHT22;12775;46.994;15.498;2022-11-30T12:07:44;7.10;99.90
1988;DHT22;12775;46.994;15.498;2022-11-30T12:10:24;7.20;99.90
1988;DHT22;12775;46.994;15.498;2022-11-30T12:12:51;7.20;99.90
1988;DHT22;12775;46.994;15.498;2022-11-30T12:15:18;7.20;99.90
1988;DHT22;12775;46.994;15.498;2022-11-30T12:20:45;7.20;99.90
1988;DHT22;12775;46.994;15.498;2022-11-30T12:28:32;7.10;99.90
1988;DHT22;12775;46.994;15.498;2022-11-30T12:31:07;7.10;99.90
1988;DHT22;12775;46.994;15.498;2022-11-30T12:33:37;7.10;99.90
1988;DHT22;12775;46.994;15.498;2022-11-30T12:36:14;7.20;99.90
1988;DHT22;12775;46.994;15.498;2022-11-30T12:38:47;7.20;99.90
1988;DHT22;12775;46.994;15.498;2022-11-30T12:41:33;7.20;99.90
1988;DHT22;12775;46.994;15.498;2022-11-30T12:44:14;7.20;99.90
1988;DHT22;12775;46.994;15.498;2022-11-30T12:46:55;7.10;99.90
1988;DHT22;12775;46.994;15.498;2022-11-30T12:49:40;7.10;99.90
1988;DHT22;12775;46.994;15.498;2022-11-30T12:52:25;6.90;99.90
1988;DHT22;12775;46.994;15.498;2022-11-30T12:57:58;6.90;99.90
1988;DHT22;12775;46.994;15.498;2022-11-30T13:00:24;6.90;99.90
1988;DHT22;12775;46.994;15.498;2022-11-30T13:02:59;6.90;99.90
1988;DHT22;12775;46.994;15.498;2022-11-30T13:05:31;7.00;99.90
1988;DHT22;12775;46.994;15.498;2022-11-30T13:07:59;7.00;99.90
1988;DHT22;12775;46.994;15.498;2022-11-30T13:10:28;7.10;99.90
1988;DHT22;12775;46.994;15.498;2022-11-30T13:12:54;7.10;99.90
1988;DHT22;12775;46.994;15.498;2022-11-30T13:15:24;7.10;99.90
1988;DHT22;12775;46.994;15.498;2022-11-30T13:17:50;7.10;99.90
1988;DHT22;12775;46.994;15.498;2022-11-30T13:20:37;6.90;99.90
1988;DHT22;12775;46.994;15.498;2022-11-30T13:23:07;7.00;99.90
1988;DHT22;12775;46.994;15.498;2022-11-30T13:31:03;7.00;99.90
1988;DHT22;12775;46.994;15.498;2022-11-30T13:33:36;7.00;99.90
1988;DHT22;12775;46.994;15.498;2022-11-30T13:36:05;7.00;99.90
1988;DHT22;12775;46.994;15.498;2022-11-30T13:38:31;7.00;99.90
1988;DHT22;12775;46.994;15.498;2022-11-30T13:40:59;7.00;99.90
1988;DHT22;12775;46.994;15.498;2022-11-30T13:43:27;7.10;99.90
1988;DHT22;12775;46.994;15.498;2022-11-30T13:46:03;7.10;99.90
1988;DHT22;12775;46.994;15.498;2022-11-30T13:48:32;7.10;99.90
1988;DHT22;12775;46.994;15.498;2022-11-30T13:50:58;7.20;99.90
1988;DHT22;12775;46.994;15.498;2022-11-30T13:53:27;7.20;99.90
1988;DHT22;12775;46.994;15.498;2022-11-30T13:55:55;7.10;99.90
1988;DHT22;12775;46.994;15.498;2022-11-30T13:58:21;7.10;99.90
1988;DHT22;12775;46.994;15.498;2022-11-30T14:01:00;7.20;99.90
1988;DHT22;12775;46.994;15.498;2022-11-30T14:03:27;7.30;99.90
1988;DHT22;12775;46.994;15.498;2022-11-30T14:05:55;7.30;99.90
1988;DHT22;12775;46.994;15.498;2022-11-30T14:08:32;7.30;99.90
1988;DHT22;12775;46.994;15.498;2022-11-30T14:11:39;7.30;99.90
1988;DHT22;12775;46.994;15.498;2022-11-30T14:13:47;7.20;99.90
1988;DHT22;12775;46.994;15.498;2022-11-30T14:16:22;7.30;99.90
1988;DHT22;12775;46.994;15.498;2022-11-30T14:18:48;7.30;99.90
1988;DHT22;12775;46.994;15.498;2022-11-30T14:21:17;7.30;99.90
1988;DHT22;12775;46.994;15.498;2022-11-30T14:23:46;7.30;99.90
1988;DHT22;12775;46.994;15.498;2022-11-30T14:26:11;7.30;99.90
1988;DHT22;12775;46.994;15.498;2022-11-30T14:28:40;7.30;99.90
1988;DHT22;12775;46.994;15.498;2022-11-30T14:31:07;7.40;99.90
1988;DHT22;12775;46.994;15.498;2022-11-30T14:33:40;7.40;99.90
1988;DHT22;12775;46.994;15.498;2022-11-30T14:36:06;7.40;99.90
1988;DHT22;12775;46.994;15.498;2022-11-30T14:38:33;7.30;99.90
1988;DHT22;12775;46.994;15.498;2022-11-30T14:40:59;7.40;99.90
1988;DHT22;12775;46.994;15.498;2022-11-30T14:43:26;7.40;99.90
1988;DHT22;12775;46.994;15.498;2022-11-30T14:45:58;7.30;99.90
1988;DHT22;12775;46.994;15.498;2022-11-30T14:48:25;7.30;99.90
1988;DHT22;12775;46.994;15.498;2022-11-30T14:50:56;7.20;99.90
1988;DHT22;12775;46.994;15.498;2022-11-30T14:56:15;7.10;99.90
1988;DHT22;12775;46.994;15.498;2022-11-30T14:58:47;7.10;99.90
1988;DHT22;12775;46.994;15.498;2022-11-30T15:01:18;7.00;99.90
1988;DHT22;12775;46.994;15.498;2022-11-30T15:03:44;6.90;99.90
1988;DHT22;12775;46.994;15.498;2022-11-30T15:06:12;6.90;99.90
1988;DHT22;12775;46.994;15.498;2022-11-30T15:08:41;6.90;99.90
1988;DHT22;12775;46.994;15.498;2022-11-30T15:11:08;7.00;99.90
1988;DHT22;12775;46.994;15.498;2022-11-30T15:13:38;7.00;99.90
1988;DHT22;12775;46.994;15.498;2022-11-30T15:16:08;7.10;99.90
1988;DHT22;12775;46.994;15.498;2022-11-30T15:18:37;7.00;99.90
1988;DHT22;12775;46.994;15.498;2022-11-30T15:21:05;7.10;99.90
1988;DHT22;12775;46.994;15.498;2022-11-30T15:23:29;7.00;99.90
1988;DHT22;12775;46.994;15.498;2022-11-30T15:25:59;7.10;99.90
1988;DHT22;12775;46.994;15.498;2022-11-30T15:28:40;7.20;99.90
1988;DHT22;12775;46.994;15.498;2022-11-30T15:31:08;7.20;99.90
1988;DHT22;12775;46.994;15.498;2022-11-30T15:33:39;7.20;99.90
1988;DHT22;12775;46.994;15.498;2022-11-30T15:36:03;7.20;99.90
1988;DHT22;12775;46.994;15.498;2022-11-30T15:38:30;7.20;99.90
1988;DHT22;12775;46.994;15.498;2022-11-30T15:41:02;7.30;99.90
1988;DHT22;12775;46.994;15.498;2022-11-30T15:43:29;7.30;99.90
1988;DHT22;12775;46.994;15.498;2022-11-30T15:45:56;7.20;99.90
1988;DHT22;12775;46.994;15.498;2022-11-30T15:48:29;7.30;99.90
1988;DHT22;12775;46.994;15.498;2022-11-30T15:50:55;7.30;99.90
1988;DHT22;12775;46.994;15.498;2022-11-30T15:53:25;7.30;99.90
1988;DHT22;12775;46.994;15.498;2022-11-30T15:55:53;7.40;99.90
1988;DHT22;12775;46.994;15.498;2022-11-30T15:58:27;7.40;99.90
1988;DHT22;12775;46.994;15.498;2022-11-30T16:01:04;7.50;99.90
1988;DHT22;12775;46.994;15.498;2022-11-30T16:03:29;7.40;99.90
1988;DHT22;12775;46.994;15.498;2022-11-30T16:05:58;7.50;99.90
1988;DHT22;12775;46.994;15.498;2022-11-30T16:08:24;7.50;99.90
1988;DHT22;12775;46.994;15.498;2022-11-30T16:10:52;7.60;99.90
1988;DHT22;12775;46.994;15.498;2022-11-30T16:13:20;7.60;99.90
1988;DHT22;12775;46.994;15.498;2022-11-30T16:15:47;7.70;99.90
1988;DHT22;12775;46.994;15.498;2022-11-30T16:18:16;7.70;99.90
1988;DHT22;12775;46.994;15.498;2022-11-30T16:20:42;7.70;99.90
1988;DHT22;12775;46.994;15.498;2022-11-30T16:23:12;7.70;99.90
1988;DHT22;12775;46.994;15.498;2022-11-30T16:25:39;7.80;99.90
1988;DHT22;12775;46.994;15.498;2022-11-30T16:28:07;7.80;99.90